Terminal Aerodrome Forecast
Issued by NWS Glasgow, MT

Home | Current Version | Previous Version | Text Only | Print | Product List | Glossary On
Versions: 1 2 3 4 5 6 7 8 9 10 11 12 13 14
000
FTUS45 KGGW 241136
TAFGGW
TAF
KGGW 241136Z 2412/2512 VRB04KT 1/4SM FG OVC002
     FM241400 28005KT 6SM BR SCT090
     FM241600 27007KT P6SM FEW230
     FM250300 24006KT P6SM SCT240=

USA.gov is the U.S. government's official web portal to all federal, state and local government web resources and services.